Higgins Lake, MI

1:56 AM EDT on July 28, 2015 (GMT -0400)
Almeda Beach, Higgins Lake | | Change Station
CLOSE
Current Station
Personal Weather Station
Location: Roscommon, MI
Elevation: 1161 ft
Nearby Weather Stations

Elev 1161 ft 44.44 °N, 84.67 °W | Updated 28 seconds ago

Clear
Clear
68.2 °F
Feels Like 68.2 °F
N
0.0
Wind Variable Wind from NNE

Today
High -- | Low -- °F
--% Chance of Precip.
Yesterday
High -- | Low -- °F
Precip. -- in
6:21 AM 9:09 PM
Waxing Gibbous, 87% visible
Pressure 30.06 in
Visibility 10.0 miles
Clouds Clear
Dew Point 61 °F
Humidity 77%
Rainfall 0.00 in
Snow Depth Not available.
UV 0 out of 12
Pollen 6.30 out of 12
Air Quality Not available.
Flu Activity Not available.
METAR KHTL 280553Z AUTO 00000KT 10SM CLR 18/16 A3007 RMK AO2 SLP178 T01830161 10311 20172 51008 $

More Conditions Fewer Conditions

Pressure 30.06 in
Visibility 10.0 miles
Clouds Clear
Dew Point 61 °F
Humidity 77%
Rainfall 0.00 in
Snow Depth Not available.
UV 0 out of 12
Pollen 6.30 out of 12
Air Quality Not available.
Flu Activity Not available.
METAR KHTL 280553Z AUTO 00000KT 10SM CLR 18/16 A3007 RMK AO2 SLP178 T01830161 10311 20172 51008 $

More Conditions Fewer Conditions

Nowcast | as of 12:00 am EDT on July 28, 2015

At 1 am...mostly clear. Temperature 72. Light winds. At 3 am...clear. Temperature 70. Light winds. At 5 am...clear. Temperature 66. Light winds. At 7 am...mostly clear. Temperature 62. Light winds.

×

10-Day Weather Forecast

×

Almanac

Astronomy

Jul. 28, 2015 Rise Set
Actual Time
Civil Twilight
Nautical Twilight
Astronomical Twilight
Moon
Length of Visible Light
Length of Day
Tomorrow will be .
, % of the Moon is Illuminated

Today's Extremes

State Highs State Lows

Community

WunderPhotos

Upload Photos

1,841,796 photos uploaded!

WunderBlogs® & News

Nearby

Air Quality

  Air Quality AQ Index Pollutant
Not available.

Snow Depth

Station Depth Elevation

Earthquake Activity

City Distance Mag. Time & Date
Minimum magnitude displayed is 2.5.

Coastal Water Temperatures

Place Temperature

Stations

Nearby Weather Stations

Station Location Temp. Windchill Dew Point Humidity Wind Precip. Elev Updated Type